Time;durP1;ratioP1;P1;durP2;ratioP2;P2;SDS_P1;SDS_P2;PMS_P1;PMS_P2;Temp;Humidity;BMP_temperature;BMP_pressure;BME280_temperature;BME280_humidity;BME280_pressure;Samples;Min_cycle;Max_cycle;Signal;HPM_P1;HPM_P2
2022/06/13 00:03:34;;;;;;;;;;;;;;;23.24;46.63;95670.28;10489413;28;1832;-63
2022/06/13 00:08:35;;;;;;;;;;;;;;;23.21;46.80;95743.03;10490069;28;1764;-61
2022/06/13 00:13:37;;;;;;;;;;;;;;;23.23;45.94;95761.25;10468496;28;1793;-63
2022/06/13 00:18:38;;;;;;;;;;;;;;;23.22;46.09;95788.78;10481876;28;1977;-62
2022/06/13 00:23:40;;;;;;;;;;;;;;;23.23;46.18;95800.94;10486530;28;1847;-63
2022/06/13 00:28:41;;;;;;;;;;;;;;;23.23;46.00;95828.16;10492516;28;1804;-63
2022/06/13 00:33:41;;;;;;;;;;;;;;;23.23;46.35;95827.38;10490004;28;1845;-63
2022/06/13 00:38:42;;;;;;;;;;;;;;;23.23;46.21;95833.47;10480333;28;1913;-62
2022/06/13 00:43:43;;;;;;;;;;;;;;;23.25;46.53;95827.88;10466612;28;2023;-63
2022/06/13 00:48:46;;;;;;;;;;;;;;;23.27;46.69;95807.22;10472983;28;2276;-63
2022/06/13 00:53:47;;;;;;;;;;;;;;;23.27;46.44;95815.94;10458293;28;2002;-63
2022/06/13 00:58:52;;;;;;;;;;;;;;;23.26;46.30;95877.06;10482710;28;2033;-63
2022/06/13 01:03:52;;;;;;;;;;;;;;;23.26;46.35;95887.66;10441987;28;1913;-62
2022/06/13 01:08:54;;;;;;;;;;;;;;;23.25;46.17;95883.41;10455339;28;1886;-63
2022/06/13 01:14:12;;;;;;;;;;;;;;;23.26;46.28;95863.84;10470403;28;1912;-63
2022/06/13 01:19:32;;;;;;;;;;;;;;;23.26;46.22;95817.03;10470806;28;1902;-62
2022/06/13 01:24:42;;;;;;;;;;;;;;;23.24;46.57;95835.03;10482954;28;1963;-64
2022/06/13 01:29:44;;;;;;;;;;;;;;;23.25;46.32;95851.66;10445497;28;1103319;-63
2022/06/13 01:34:47;;;;;;;;;;;;;;;23.25;46.45;95872.84;10495728;28;1887;-61
2022/06/13 01:40:06;;;;;;;;;;;;;;;23.25;46.36;95873.63;10492356;28;1979;-63
2022/06/13 01:45:16;;;;;;;;;;;;;;;23.25;46.24;95889.50;10484818;28;1848;-63
2022/06/13 01:50:25;;;;;;;;;;;;;;;23.25;46.21;95920.44;10482663;28;1976;-63
2022/06/13 01:55:28;;;;;;;;;;;;;;;23.26;46.16;95874.41;10476962;28;1942;-63
2022/06/13 02:00:32;;;;;;;;;;;;;;;23.26;46.34;95901.66;10481530;28;2024;-63
2022/06/13 02:05:37;;;;;;;;;;;;;;;23.28;46.92;95898.72;10467859;28;2009;-62
2022/06/13 02:10:39;;;;;;;;;;;;;;;23.30;47.01;95918.53;10458805;28;1916;-62
2022/06/13 02:15:40;;;;;;;;;;;;;;;23.30;46.89;95929.09;10443554;28;1861;-63
2022/06/13 02:20:45;;;;;;;;;;;;;;;23.32;47.73;95899.75;10480092;28;1915;-62
2022/06/13 02:25:46;;;;;;;;;;;;;;;23.32;47.91;95902.41;10446826;28;1971;-63
2022/06/13 02:30:48;;;;;;;;;;;;;;;23.32;47.00;95894.47;10478115;28;1966;-62
2022/06/13 02:35:50;;;;;;;;;;;;;;;23.31;47.10;95890.19;10496678;28;1946;-63
2022/06/13 02:40:52;;;;;;;;;;;;;;;23.31;47.02;95882.25;10477255;28;2034;-61
2022/06/13 02:46:00;;;;;;;;;;;;;;;23.30;46.91;95881.50;10478556;28;1911;-62
2022/06/13 02:51:02;;;;;;;;;;;;;;;23.30;46.84;95862.19;10497250;28;2025;-62
2022/06/13 02:56:14;;;;;;;;;;;;;;;23.30;46.89;95870.91;10488827;28;1923;-62
2022/06/13 03:01:19;;;;;;;;;;;;;;;23.30;46.77;95880.72;10468236;28;2100;-63
2022/06/13 03:06:21;;;;;;;;;;;;;;;23.28;46.42;95898.72;10463448;28;1849;-63
2022/06/13 03:11:38;;;;;;;;;;;;;;;23.27;46.79;95892.63;10487165;28;1914;-63
2022/06/13 03:16:57;;;;;;;;;;;;;;;23.28;46.88;95898.72;10458677;28;2077;-63
2022/06/13 03:22:18;;;;;;;;;;;;;;;23.28;46.63;95888.16;10475976;28;1977;-63
2022/06/13 03:27:21;;;;;;;;;;;;;;;23.26;46.68;95854.06;10500063;28;1587;-61
2022/06/13 03:32:23;;;;;;;;;;;;;;;23.27;46.45;95817.78;10483088;28;1412;-62
2022/06/13 03:37:45;;;;;;;;;;;;;;;23.27;46.46;95842.38;10448361;28;1947;-63
2022/06/13 03:42:52;;;;;;;;;;;;;;;23.28;46.49;95857.19;10457194;28;1955;-62
2022/06/13 03:47:54;;;;;;;;;;;;;;;23.28;46.39;95843.19;10474165;28;1947;-63
2022/06/13 03:53:18;;;;;;;;;;;;;;;23.28;46.50;95856.41;10451257;28;2017;-63
2022/06/13 03:58:23;;;;;;;;;;;;;;;23.26;46.04;95859.34;10453328;28;2118;-62
2022/06/13 04:03:24;;;;;;;;;;;;;;;23.27;46.14;95854.81;10453516;28;1954;-60
2022/06/13 04:08:24;;;;;;;;;;;;;;;23.26;45.87;95845.31;10496935;28;1609;-62
2022/06/13 04:13:27;;;;;;;;;;;;;;;23.25;46.10;95841.09;10488524;28;1479;-58
2022/06/13 04:18:35;;;;;;;;;;;;;;;23.25;45.94;95836.59;10440264;28;1954;-61
2022/06/13 04:23:36;;;;;;;;;;;;;;;23.26;45.95;95850.63;10497429;28;1848;-61
2022/06/13 04:28:37;;;;;;;;;;;;;;;23.26;46.34;95837.41;10505066;28;1817;-62
2022/06/13 04:33:39;;;;;;;;;;;;;;;23.27;46.34;95849.53;10463448;28;1782;-59
2022/06/13 04:38:41;;;;;;;;;;;;;;;23.26;46.44;95832.09;10491343;28;1969;-61
2022/06/13 04:43:42;;;;;;;;;;;;;;;23.26;46.09;95840.84;10477361;28;1862;-62
2022/06/13 04:48:43;;;;;;;;;;;;;;;23.27;46.02;95844.25;10491996;28;1807;-62
2022/06/13 04:54:00;;;;;;;;;;;;;;;23.26;46.41;95840.84;10460338;28;1957;-61
2022/06/13 04:59:00;;;;;;;;;;;;;;;23.27;46.13;95854.81;10467612;28;1913;-60
2022/06/13 05:04:05;;;;;;;;;;;;;;;23.27;46.08;95857.47;10465007;28;1870;-62
2022/06/13 05:09:11;;;;;;;;;;;;;;;23.27;45.85;95846.88;10501181;28;1858;-62
2022/06/13 05:14:17;;;;;;;;;;;;;;;23.26;46.09;95862.00;10481374;28;1823;-62
2022/06/13 05:19:36;;;;;;;;;;;;;;;23.26;45.56;95872.56;10442225;28;1910;-61
2022/06/13 05:24:58;;;;;;;;;;;;;;;23.27;45.65;95860.09;10490074;28;1978;-62
2022/06/13 05:29:58;;;;;;;;;;;;;;;23.25;45.89;95838.44;10477852;28;1852;-59
2022/06/13 05:35:01;;;;;;;;;;;;;;;23.26;45.66;95842.69;10460407;28;1902;-60
2022/06/13 05:40:01;;;;;;;;;;;;;;;23.27;45.45;95854.81;10479913;28;1914;-61
2022/06/13 05:45:02;;;;;;;;;;;;;;;23.26;45.71;95859.34;10442966;28;1776;-61
2022/06/13 05:50:02;;;;;;;;;;;;;;;23.27;45.68;95857.47;10463424;28;1734;-61
2022/06/13 05:55:03;;;;;;;;;;;;;;;23.28;45.70;95856.41;10477088;28;1889;-61
2022/06/13 06:00:04;;;;;;;;;;;;;;;23.28;45.85;95861.69;10464414;28;2009;-62
2022/06/13 06:05:04;;;;;;;;;;;;;;;23.26;46.16;95842.69;10452832;28;1828;-63
2022/06/13 06:10:05;;;;;;;;;;;;;;;23.29;45.63;95834.94;10454023;28;1819;-62
2022/06/13 06:15:07;;;;;;;;;;;;;;;23.29;46.12;95840.25;10469448;28;1895;-63
2022/06/13 06:20:07;;;;;;;;;;;;;;;23.29;46.17;95834.94;10488860;28;2274;-62
2022/06/13 06:25:08;;;;;;;;;;;;;;;23.30;46.13;95839.19;10450836;28;1836;-62
2022/06/13 06:30:10;;;;;;;;;;;;;;;23.31;45.97;95840.72;10470884;28;1824;-62
2022/06/13 06:35:11;;;;;;;;;;;;;;;23.31;46.15;95846.03;10470141;28;1896;-62
2022/06/13 06:40:11;;;;;;;;;;;;;;;23.33;45.79;95864.28;10469561;28;1999;-63
2022/06/13 06:45:12;;;;;;;;;;;;;;;23.31;46.72;95866.38;10474376;28;1863;-64
2022/06/13 06:50:13;;;;;;;;;;;;;;;23.35;46.94;95856.84;10474943;28;1794;-64
2022/06/13 07:00:33;;;;;;;;;;;;;;;23.37;46.20;95870.56;10472900;28;1949;-60
2022/06/13 07:05:33;;;;;;;;;;;;;;;23.38;46.36;95862.34;10472302;28;1888;-61
2022/06/13 07:10:33;;;;;;;;;;;;;;;23.40;46.58;95875.28;10457038;28;1781;-62
2022/06/13 07:15:36;;;;;;;;;;;;;;;23.38;46.29;95872.94;10454840;28;3102;-62
2022/06/13 07:20:38;;;;;;;;;;;;;;;23.41;46.47;95876.88;10457648;28;1909;-59
2022/06/13 07:25:38;;;;;;;;;;;;;;;23.40;46.31;95878.72;10450294;28;1734;-59
2022/06/13 07:30:38;;;;;;;;;;;;;;;23.41;46.43;95879.53;10455955;28;1827;-59
2022/06/13 07:35:39;;;;;;;;;;;;;;;23.40;47.38;95875.28;10438146;28;1769;-63
2022/06/13 07:40:39;;;;;;;;;;;;;;;23.38;47.49;95886.16;10449053;28;1977;-60
2022/06/13 07:45:40;;;;;;;;;;;;;;;23.42;46.81;95881.06;10452489;28;1745;-60
2022/06/13 07:50:41;;;;;;;;;;;;;;;23.41;46.62;95893.50;10466463;28;1867;-60
2022/06/13 07:55:41;;;;;;;;;;;;;;;23.44;47.14;95898.25;10464158;28;1765;-58
2022/06/13 08:00:41;;;;;;;;;;;;;;;23.45;46.90;95901.69;10457831;28;1918;-61
2022/06/13 08:05:42;;;;;;;;;;;;;;;23.46;46.43;95900.59;10476313;28;1847;-59
2022/06/13 08:10:44;;;;;;;;;;;;;;;23.46;46.71;95900.59;10474802;28;1822;-62
2022/06/13 08:15:44;;;;;;;;;;;;;;;23.46;46.66;95897.94;10475124;28;1938;-60
2022/06/13 08:20:45;;;;;;;;;;;;;;;23.48;47.90;95897.66;10460360;28;1971;-59
2022/06/13 08:25:46;;;;;;;;;;;;;;;23.46;47.43;95911.16;10459844;28;1901;-58
2022/06/13 08:30:56;;;;;;;;;;;;;;;23.48;46.75;95916.97;10461245;28;1823;-58
2022/06/13 08:35:58;;;;;;;;;;;;;;;23.48;46.51;95919.59;10472269;28;1826;-60
2022/06/13 08:41:04;;;;;;;;;;;;;;;23.49;46.63;95920.41;10458386;28;2025;-59
2022/06/13 08:46:20;;;;;;;;;;;;;;;23.46;47.63;95921.75;10457173;28;1832;-60
2022/06/13 08:51:22;;;;;;;;;;;;;;;23.48;46.76;95924.91;10476443;28;1745;-57
2022/06/13 08:56:25;;;;;;;;;;;;;;;23.49;47.42;95926.47;10491401;28;1944;-61
2022/06/13 09:01:32;;;;;;;;;;;;;;;23.51;47.24;95934.91;10498819;28;1995;-61
2022/06/13 09:06:33;;;;;;;;;;;;;;;23.52;47.18;95925.09;10461917;28;1819;-61
2022/06/13 09:11:47;;;;;;;;;;;;;;;23.52;47.33;95927.75;10473978;28;1907;-60
2022/06/13 09:16:56;;;;;;;;;;;;;;;23.54;47.82;95950.22;10473744;28;1788;-59
2022/06/13 09:21:56;;;;;;;;;;;;;;;23.57;47.44;95941.72;10486805;28;1906;-61
2022/06/13 09:27:00;;;;;;;;;;;;;;;23.59;47.48;95950.16;10456493;28;1827;-59
2022/06/13 09:32:02;;;;;;;;;;;;;;;23.60;47.17;95950.91;10477585;28;2072;-57
2022/06/13 09:37:06;;;;;;;;;;;;;;;23.62;47.23;95952.19;10445248;28;1780;-61
2022/06/13 09:42:18;;;;;;;;;;;;;;;23.60;47.42;95953.56;10454931;28;1906;-60
2022/06/13 09:47:30;;;;;;;;;;;;;;;23.62;47.17;95949.56;10484722;28;1990;-59
2022/06/13 09:52:44;;;;;;;;;;;;;;;23.62;47.19;95941.63;10486201;28;1815;-62
2022/06/13 09:57:48;;;;;;;;;;;;;;;23.60;47.53;95959.63;10469822;28;1878;-60
2022/06/13 10:03:07;;;;;;;;;;;;;;;23.59;47.58;95952.78;10473850;28;1955;-60
2022/06/13 10:08:14;;;;;;;;;;;;;;;23.61;47.90;95955.94;10486794;28;1813;-60
2022/06/13 10:13:16;;;;;;;;;;;;;;;23.61;48.03;95955.94;10453582;28;1817;-61
2022/06/13 10:18:30;;;;;;;;;;;;;;;23.62;47.59;95959.38;10469283;28;1971;-61
2022/06/13 10:23:36;;;;;;;;;;;;;;;23.60;47.79;95954.34;10484234;28;1803;-60
2022/06/13 10:28:46;;;;;;;;;;;;;;;23.60;48.06;95964.13;10461206;28;1809;-58
2022/06/13 10:33:52;;;;;;;;;;;;;;;23.62;47.93;95962.03;10486803;28;1767;-60
2022/06/13 10:39:04;;;;;;;;;;;;;;;23.65;47.54;95959.56;10472696;28;1981;-59
2022/06/13 10:44:06;;;;;;;;;;;;;;;23.64;46.39;95970.47;10464397;28;1860;-63
2022/06/13 10:49:10;;;;;;;;;;;;;;;23.61;46.06;95971.03;10469959;28;1855;-61
2022/06/13 10:54:21;;;;;;;;;;;;;;;23.53;45.59;95964.53;10485838;28;1784;-61
2022/06/13 10:59:31;;;;;;;;;;;;;;;23.53;45.16;95975.09;10448842;28;1945;-60
2022/06/13 11:04:35;;;;;;;;;;;;;;;23.50;45.55;95970.38;10458370;28;1867;-62
2022/06/13 11:09:37;;;;;;;;;;;;;;;23.49;46.19;95973.31;10455885;28;1843;-61
2022/06/13 11:22:37;;;;;;;;;;;;;;;23.51;46.50;95977.25;10434439;28;1805;-64
2022/06/13 11:25:28;;;;;;;;;;;;;;;23.57;46.70;95968.16;10439852;28;1846;-59
2022/06/13 11:30:47;;;;;;;;;;;;;;;23.58;47.01;95966.28;10454483;28;1911;-63
2022/06/13 11:35:49;;;;;;;;;;;;;;;23.63;46.60;95974.97;10471706;28;1780;-60
2022/06/13 11:41:08;;;;;;;;;;;;;;;23.63;46.63;95980.25;10485572;28;1957;-60
2022/06/13 11:46:10;;;;;;;;;;;;;;;23.62;46.92;95968.06;10445619;28;1785;-59
2022/06/13 11:51:16;;;;;;;;;;;;;;;23.63;46.82;95966.22;10488819;28;1787;-60
2022/06/13 11:56:22;;;;;;;;;;;;;;;23.64;46.95;95971.22;10473414;28;1914;-62
2022/06/13 12:01:26;;;;;;;;;;;;;;;23.65;46.97;95972.03;10463498;28;1914;-60
2022/06/13 12:06:27;;;;;;;;;;;;;;;23.70;46.56;95969.31;10474539;28;1906;-61
2022/06/13 12:11:27;;;;;;;;;;;;;;;23.70;46.69;95975.38;10461563;28;1900;-56
2022/06/13 12:16:32;;;;;;;;;;;;;;;23.66;46.50;95963.78;10450139;28;1967;-62
2022/06/13 12:21:44;;;;;;;;;;;;;;;23.66;47.23;95971.72;10473733;28;1977;-63
2022/06/13 12:26:49;;;;;;;;;;;;;;;23.68;46.87;95960.88;10475350;28;1903;-58
2022/06/13 12:31:52;;;;;;;;;;;;;;;23.70;47.13;95970.06;10483063;28;1843;-60
2022/06/13 12:37:12;;;;;;;;;;;;;;;23.72;47.01;95961.88;10492031;28;1856;-59
2022/06/13 12:42:22;;;;;;;;;;;;;;;23.73;46.91;95972.16;10476563;28;1913;-60
2022/06/13 12:47:29;;;;;;;;;;;;;;;23.75;46.85;95977.16;10444655;28;1862;-61
2022/06/13 12:52:45;;;;;;;;;;;;;;;23.73;47.45;95980.09;10454494;28;1905;-58
2022/06/13 12:57:54;;;;;;;;;;;;;;;23.76;47.39;95970.81;10478252;28;2046;-62
2022/06/13 13:02:58;;;;;;;;;;;;;;;23.78;46.76;95981.88;10458541;28;1991;-61
2022/06/13 13:08:07;;;;;;;;;;;;;;;23.79;47.16;95976.28;10456200;28;1846;-60
2022/06/13 13:13:37;;;;;;;;;;;;;;;23.80;46.81;95974.44;10471281;28;1889;-56
2022/06/13 13:18:56;;;;;;;;;;;;;;;23.80;46.94;95974.44;10450270;28;1902;-60
2022/06/13 13:24:03;;;;;;;;;;;;;;;23.80;47.42;95985.78;10483123;28;2015;-61
2022/06/13 13:29:05;;;;;;;;;;;;;;;23.80;46.90;95991.09;10487583;28;1806;-61
2022/06/13 13:34:25;;;;;;;;;;;;;;;23.80;47.47;95993.75;10484379;28;1820;-62
2022/06/13 13:39:44;;;;;;;;;;;;;;;23.79;46.59;95997.47;10491250;28;1910;-61
2022/06/13 13:44:53;;;;;;;;;;;;;;;23.79;47.16;96000.13;10477163;28;1666;-62
2022/06/13 13:49:55;;;;;;;;;;;;;;;23.78;47.44;96003.81;10492621;28;1929;-60
2022/06/13 13:54:57;;;;;;;;;;;;;;;23.81;47.13;96005.91;10443549;28;1866;-62
2022/06/13 14:00:02;;;;;;;;;;;;;;;23.77;46.84;96001.47;10491451;28;1906;-61
2022/06/13 14:05:07;;;;;;;;;;;;;;;23.78;47.07;96000.41;10469011;28;1933;-60
2022/06/13 14:10:08;;;;;;;;;;;;;;;23.78;46.96;96013.66;10481830;28;1801;-62
2022/06/13 14:15:09;;;;;;;;;;;;;;;23.81;46.95;96007.75;10457286;28;1945;-61
2022/06/13 14:20:18;;;;;;;;;;;;;;;23.81;47.15;96008.56;10474510;28;1914;-61
2022/06/13 14:25:20;;;;;;;;;;;;;;;23.81;47.35;96008.56;10454945;28;1796;-62
2022/06/13 14:35:48;;;;;;;;;;;;;;;23.78;47.30;96014.41;10474494;28;1794;-62
2022/06/13 14:40:50;;;;;;;;;;;;;;;23.83;47.14;96016.22;10454611;28;1902;-62
2022/06/13 14:45:56;;;;;;;;;;;;;;;23.86;46.83;95999.75;10492583;28;1803;-62
2022/06/13 14:50:56;;;;;;;;;;;;;;;23.82;47.42;96004.81;10442588;28;1820;-62
2022/06/13 14:56:09;;;;;;;;;;;;;;;23.83;47.55;96005.63;10453344;28;1805;-62
2022/06/13 15:01:22;;;;;;;;;;;;;;;23.84;47.56;95999.25;10452305;28;1906;-63
2022/06/13 15:06:23;;;;;;;;;;;;;;;23.83;47.62;96011.72;10482156;28;1843;-63
2022/06/13 15:11:24;;;;;;;;;;;;;;;23.86;48.08;96015.66;10442124;28;1912;-60
2022/06/13 15:16:24;;;;;;;;;;;;;;;23.84;47.68;96009.84;10439670;28;1905;-61
2022/06/13 15:21:24;;;;;;;;;;;;;;;23.87;47.92;96012.69;10433133;28;1973;-62
2022/06/13 15:26:26;;;;;;;;;;;;;;;23.89;47.83;96009.75;10464273;28;1785;-61
2022/06/13 15:31:26;;;;;;;;;;;;;;;23.88;48.05;96013.50;10460513;28;1480;-61
2022/06/13 15:36:29;;;;;;;;;;;;;;;23.88;47.35;96019.59;10458610;28;1476;-62
2022/06/13 15:41:34;;;;;;;;;;;;;;;23.83;47.50;96014.34;10451956;28;2080;-66
2022/06/13 15:46:38;;;;;;;;;;;;;;;23.86;47.09;96005.84;10470600;28;1907;-63
2022/06/13 15:51:38;;;;;;;;;;;;;;;23.89;46.92;96007.91;10472486;28;1820;-63
2022/06/13 15:56:38;;;;;;;;;;;;;;;23.83;47.10;96005.63;10453187;28;1782;-59
2022/06/13 16:01:44;;;;;;;;;;;;;;;23.81;47.19;96010.41;10451378;28;2009;-62
2022/06/13 16:06:45;;;;;;;;;;;;;;;23.85;47.02;96004.25;10480079;28;1866;-63
2022/06/13 16:11:46;;;;;;;;;;;;;;;23.89;47.08;96009.75;10493148;28;1998;-63
2022/06/13 16:16:47;;;;;;;;;;;;;;;23.88;47.00;96014.28;10458392;28;2063;-59
2022/06/13 16:21:48;;;;;;;;;;;;;;;23.90;46.02;96022.72;10432725;28;2054;-63
2022/06/13 16:26:48;;;;;;;;;;;;;;;23.86;46.05;96011.16;10456451;28;1863;-61
2022/06/13 16:31:48;;;;;;;;;;;;;;;23.82;45.99;96015.41;10447372;28;1822;-64
2022/06/13 16:36:49;;;;;;;;;;;;;;;23.81;46.17;96024.44;10479136;28;1809;-61
2022/06/13 16:41:50;;;;;;;;;;;;;;;23.79;45.84;96018.66;10455690;28;1985;-61
2022/06/13 16:46:51;;;;;;;;;;;;;;;23.79;45.08;96020.50;10479850;28;1858;-62
2022/06/13 16:51:55;;;;;;;;;;;;;;;23.80;45.84;96019.44;10475272;28;1824;-62
2022/06/13 16:56:55;;;;;;;;;;;;;;;23.78;44.75;96025.00;10446758;28;1824;-61
2022/06/13 17:01:57;;;;;;;;;;;;;;;23.76;44.30;96029.81;10451605;28;1962;-62
2022/06/13 17:07:15;;;;;;;;;;;;;;;23.75;43.47;96041.47;10491275;28;1820;-61
2022/06/13 17:12:15;;;;;;;;;;;;;;;23.61;41.34;96032.69;10478201;28;1808;-61
2022/06/13 17:17:16;;;;;;;;;;;;;;;23.58;41.73;96027.16;10453671;28;1885;-63
2022/06/13 17:22:19;;;;;;;;;;;;;;;23.56;41.22;96035.38;10468483;28;1985;-63
2022/06/13 17:32:38;;;;;;;;;;;;;;;23.48;39.49;96045.81;10444007;28;1834;-62
2022/06/13 17:37:38;;;;;;;;;;;;;;;23.43;38.96;96047.44;10481199;28;1862;-63
2022/06/13 17:42:39;;;;;;;;;;;;;;;23.39;38.79;96054.38;10465400;28;1914;-62
2022/06/13 17:47:40;;;;;;;;;;;;;;;23.37;38.82;96056.53;10485963;28;2057;-62
2022/06/13 17:52:41;;;;;;;;;;;;;;;23.38;39.37;96052.81;10476592;28;1815;-62
2022/06/13 17:57:41;;;;;;;;;;;;;;;23.37;38.38;96061.81;10468998;28;2170;-63
2022/06/13 18:02:42;;;;;;;;;;;;;;;23.37;38.40;96061.81;10469364;28;2003;-61
2022/06/13 18:07:43;;;;;;;;;;;;;;;23.38;39.00;96062.63;10455984;28;1863;-61
2022/06/13 18:12:43;;;;;;;;;;;;;;;23.41;39.41;96070.00;10475382;28;1777;-62
2022/06/13 18:17:44;;;;;;;;;;;;;;;23.44;40.73;96075.50;10473954;28;1882;-62
2022/06/13 18:22:44;;;;;;;;;;;;;;;23.49;40.61;96079.94;10475244;28;1981;-61
2022/06/13 18:27:46;;;;;;;;;;;;;;;23.52;41.30;96082.00;10458130;28;2539;-61
2022/06/13 18:32:46;;;;;;;;;;;;;;;23.50;40.75;96084.16;10473469;28;1880;-63
2022/06/13 18:37:47;;;;;;;;;;;;;;;23.45;40.56;96079.69;10460991;28;1882;-62
2022/06/13 18:42:48;;;;;;;;;;;;;;;23.41;39.47;96078.69;10475699;28;1906;-62
2022/06/13 18:47:49;;;;;;;;;;;;;;;23.38;39.00;96083.78;10446406;28;1857;-62
2022/06/13 18:52:50;;;;;;;;;;;;;;;23.35;39.35;96084.31;10466428;28;1928;-62
2022/06/13 18:57:50;;;;;;;;;;;;;;;23.31;38.16;96085.94;10486504;28;1858;-63
2022/06/13 19:02:58;;;;;;;;;;;;;;;23.34;39.26;96090.69;10484015;28;1907;-60
2022/06/13 19:07:58;;;;;;;;;;;;;;;;;;10479834;28;1837;-61
2022/06/13 19:13:00;;;;;;;;;;;;;;;23.30;38.02;96101.03;10467074;28;1938;-62
2022/06/13 19:18:02;;;;;;;;;;;;;;;23.24;37.28;96096.88;10476682;28;1756;-62
2022/06/13 19:23:02;;;;;;;;;;;;;;;23.17;36.60;96104.34;10467835;28;1902;-62
2022/06/13 19:28:02;;;;;;;;;;;;;;;23.12;36.44;96111.56;10467840;28;1847;-61
2022/06/13 19:33:03;;;;;;;;;;;;;;;23.08;36.50;96121.13;10454315;28;1820;-62
2022/06/13 19:38:04;;;;;;;;;;;;;;;23.08;36.71;96126.41;10452022;28;1820;-60
2022/06/13 19:43:05;;;;;;;;;;;;;;;23.09;36.74;96128.75;10483090;28;1914;-61
2022/06/13 19:48:05;;;;;;;;;;;;;;;23.09;36.53;96127.97;10475260;28;1859;-63
2022/06/13 19:53:10;;;;;;;;;;;;;;;23.10;36.72;96132.97;10451798;28;1842;-57
2022/06/13 19:58:11;;;;;;;;;;;;;;;23.10;36.60;96135.63;10478254;28;1780;-61
2022/06/13 20:03:14;;;;;;;;;;;;;;;23.09;36.49;96136.69;10460596;28;2008;-62
2022/06/13 20:08:24;;;;;;;;;;;;;;;23.10;36.40;96138.25;10482253;28;1860;-62
2022/06/13 20:13:28;;;;;;;;;;;;;;;23.15;37.29;96142.72;10462650;28;1754;-62
2022/06/13 20:18:28;;;;;;;;;;;;;;;23.18;37.35;96153.53;10463011;28;1910;-62
2022/06/13 20:23:28;;;;;;;;;;;;;;;23.20;37.43;96151.41;10459726;28;1794;-60
2022/06/13 20:28:29;;;;;;;;;;;;;;;23.22;37.79;96154.56;10481242;28;1792;-61
2022/06/13 20:33:31;;;;;;;;;;;;;;;23.23;37.73;96152.69;10478071;28;1855;-60
2022/06/13 20:38:32;;;;;;;;;;;;;;;23.25;38.29;96153.19;10462984;28;1989;-62
2022/06/13 20:43:35;;;;;;;;;;;;;;;23.25;38.39;96148.69;10481180;28;1831;-62
2022/06/13 20:48:38;;;;;;;;;;;;;;;23.28;38.65;96152.63;10479058;28;1851;-60
2022/06/13 20:53:38;;;;;;;;;;;;;;;23.28;38.44;96158.72;10471019;28;2142;-61
2022/06/13 20:58:39;;;;;;;;;;;;;;;23.29;38.65;96164.78;10460285;28;1914;-60
2022/06/13 21:03:41;;;;;;;;;;;;;;;23.28;38.74;96148.16;10465613;28;1866;-62
2022/06/13 21:10:05;;;;;;;;;;;;;;;23.28;38.73;96156.09;10481269;28;1706;-60
2022/06/13 21:14:02;;;;;;;;;;;;;;;23.29;38.73;96160.28;10464227;28;1843;-62
2022/06/13 21:19:02;;;;;;;;;;;;;;;23.30;38.81;96161.09;10477164;28;1914;-61
2022/06/13 21:24:03;;;;;;;;;;;;;;;23.30;39.05;96164.53;10461599;28;1830;-61
2022/06/13 21:29:05;;;;;;;;;;;;;;;23.30;38.93;96158.44;10479853;28;1805;-62
2022/06/13 21:34:06;;;;;;;;;;;;;;;23.31;39.36;96160.00;10462124;28;1798;-61
2022/06/13 21:39:06;;;;;;;;;;;;;;;23.31;39.26;96154.72;10487832;28;1973;-61
2022/06/13 21:44:07;;;;;;;;;;;;;;;23.32;39.66;96161.63;10456405;28;1899;-62
2022/06/13 21:49:07;;;;;;;;;;;;;;;23.32;39.76;96154.47;10457331;28;1944;-63
2022/06/13 21:54:08;;;;;;;;;;;;;;;23.33;39.66;96149.97;10458071;28;1841;-62
2022/06/13 21:59:09;;;;;;;;;;;;;;;23.35;39.55;96161.03;10488823;28;1996;-61
2022/06/13 22:04:11;;;;;;;;;;;;;;;23.35;39.59;96158.41;10457798;28;1906;-60
2022/06/13 22:09:11;;;;;;;;;;;;;;;23.35;39.73;96161.03;10480800;28;1816;-63
2022/06/13 22:14:11;;;;;;;;;;;;;;;23.34;39.68;96162.13;10472974;28;1789;-62
2022/06/13 22:19:11;;;;;;;;;;;;;;;23.33;39.63;96169.28;10474881;28;1910;-62
2022/06/13 22:24:12;;;;;;;;;;;;;;;23.33;39.41;96160.53;10476370;28;1847;-62
2022/06/13 22:29:12;;;;;;;;;;;;;;;23.33;39.41;96171.13;10477027;28;1790;-62
2022/06/13 22:34:13;;;;;;;;;;;;;;;23.32;39.55;96165.06;10476608;28;1892;-62
2022/06/13 22:39:14;;;;;;;;;;;;;;;23.32;39.31;96175.66;10480100;28;2001;-61
2022/06/13 22:44:14;;;;;;;;;;;;;;;23.33;39.52;96176.41;10455600;28;1961;-62
2022/06/13 22:54:33;;;;;;;;;;;;;;;23.33;39.59;96173.75;10455763;28;2502;-62
2022/06/13 22:59:34;;;;;;;;;;;;;;;23.34;39.93;96172.72;10456086;28;1993;-62
2022/06/13 23:04:37;;;;;;;;;;;;;;;23.35;40.06;96176.91;10475605;28;1868;-61
2022/06/13 23:09:38;;;;;;;;;;;;;;;23.35;40.15;96169.78;10457106;28;1883;-59
2022/06/13 23:14:38;;;;;;;;;;;;;;;23.35;40.15;96174.28;10486075;28;1864;-62
2022/06/13 23:19:38;;;;;;;;;;;;;;;23.35;39.75;96172.41;10475308;28;2001;-62
2022/06/13 23:24:38;;;;;;;;;;;;;;;23.35;39.94;96177.72;10488068;28;1861;-61
2022/06/13 23:29:39;;;;;;;;;;;;;;;23.36;40.03;96175.84;10489667;28;1912;-62
2022/06/13 23:34:39;;;;;;;;;;;;;;;23.36;40.24;96171.38;10486234;28;1950;-62
2022/06/13 23:39:39;;;;;;;;;;;;;;;23.36;40.30;96175.84;10459512;28;1988;-62
2022/06/13 23:44:39;;;;;;;;;;;;;;;23.36;40.20;96181.16;10473593;28;1813;-61
2022/06/13 23:49:40;;;;;;;;;;;;;;;23.35;39.94;96177.72;10472191;28;1718;-62
2022/06/13 23:54:40;;;;;;;;;;;;;;;23.36;40.31;96178.50;10473472;28;1887;-61
